Time;durP1;ratioP1;P1;durP2;ratioP2;P2;SDS_P1;SDS_P2;PMS_P1;PMS_P2;Temp;Humidity;BMP_temperature;BMP_pressure;BME280_temperature;BME280_humidity;BME280_pressure;Samples;Min_cycle;Max_cycle;Signal;HPM_P1;HPM_P2
2023/09/19 00:02:18;;;;;;;6.70;3.70;;;;;;;-148.88;100.00;-17125.47;5018217;28;20030;-84
2023/09/19 00:04:44;;;;;;;9.68;4.05;;;;;;;-148.88;100.00;-17125.47;5015582;28;20044;-84
2023/09/19 00:07:10;;;;;;;8.73;3.75;;;;;;;-148.88;100.00;-17125.47;5014826;28;20149;-85
2023/09/19 00:09:38;;;;;;;7.93;4.32;;;;;;;-148.88;100.00;-17125.47;5016294;28;20477;-84
2023/09/19 00:12:09;;;;;;;7.30;3.88;;;;;;;-148.88;100.00;-17125.47;5015915;28;20021;-85
2023/09/19 00:14:35;;;;;;;8.07;4.50;;;;;;;-148.88;100.00;-17125.47;5014432;28;20466;-85
2023/09/19 00:17:07;;;;;;;8.90;4.47;;;;;;;-148.88;100.00;-17125.47;5015743;28;20072;-86
2023/09/19 00:19:34;;;;;;;8.55;4.32;;;;;;;-148.88;100.00;-17125.47;5016059;28;20026;-84
2023/09/19 00:21:59;;;;;;;8.60;3.88;;;;;;;-148.88;100.00;-17125.47;5017468;28;20040;-86
2023/09/19 00:24:24;;;;;;;8.27;4.28;;;;;;;-148.88;100.00;-17125.47;5015634;28;20022;-85
2023/09/19 00:26:50;;;;;;;11.40;4.80;;;;;;;-148.88;100.00;-17125.47;5016184;28;20041;-85
2023/09/19 00:29:16;;;;;;;8.80;4.30;;;;;;;-148.88;100.00;-17125.47;5016244;28;20097;-84
2023/09/19 00:31:44;;;;;;;7.35;4.10;;;;;;;-148.88;100.00;-17125.47;5015973;28;20026;-84
2023/09/19 00:34:10;;;;;;;7.95;4.20;;;;;;;-148.88;100.00;-17125.47;5015226;28;20092;-85
2023/09/19 00:36:39;;;;;;;8.73;3.85;;;;;;;-148.88;100.00;-17125.47;5015477;28;20397;-86
2023/09/19 00:39:05;;;;;;;7.68;3.95;;;;;;;-148.88;100.00;-17125.47;5015093;28;20036;-85
2023/09/19 00:41:32;;;;;;;7.80;4.20;;;;;;;-148.88;100.00;-17125.47;5015936;28;20440;-84
2023/09/19 00:43:58;;;;;;;12.77;4.93;;;;;;;-148.88;100.00;-17125.47;5015589;28;20037;-85
2023/09/19 00:46:23;;;;;;;8.07;3.72;;;;;;;-148.88;100.00;-17125.47;5013716;28;20022;-86
2023/09/19 00:48:49;;;;;;;6.50;3.47;;;;;;;-148.88;100.00;-17125.47;5015613;28;20101;-84
2023/09/19 00:51:19;;;;;;;7.72;3.80;;;;;;;-148.88;100.00;-17125.47;5015167;28;20018;-85
2023/09/19 00:53:46;;;;;;;9.30;3.47;;;;;;;-148.88;100.00;-17125.47;5013748;28;20022;-85
2023/09/19 00:56:12;;;;;;;8.95;4.10;;;;;;;-148.88;100.00;-17125.47;5015021;28;20022;-86
2023/09/19 00:58:40;;;;;;;8.02;4.25;;;;;;;-148.88;100.00;-17125.47;5013496;28;20108;-86
2023/09/19 01:01:06;;;;;;;8.55;4.18;;;;;;;-148.88;100.00;-17125.47;5015212;28;20549;-85
2023/09/19 01:03:36;;;;;;;9.50;4.20;;;;;;;-148.88;100.00;-17125.47;5016059;28;20110;-85
2023/09/19 01:06:02;;;;;;;10.88;4.10;;;;;;;-148.88;100.00;-17125.47;5014847;28;20030;-85
2023/09/19 01:08:31;;;;;;;8.57;4.45;;;;;;;-148.88;100.00;-17125.47;5015007;28;20022;-86
2023/09/19 01:11:09;;;;;;;10.43;4.45;;;;;;;-148.88;100.00;-17125.47;5015939;28;20049;-86
2023/09/19 01:13:48;;;;;;;9.00;4.53;;;;;;;-148.88;100.00;-17125.47;5015084;28;20025;-85
2023/09/19 01:16:28;;;;;;;9.73;4.43;;;;;;;-148.88;100.00;-17125.47;5016290;28;20022;-85
2023/09/19 01:19:44;;;;;;;9.43;4.25;;;;;;;-148.88;100.00;-17125.47;5014998;28;20026;-86
2023/09/19 01:22:36;;;;;;;9.00;4.10;;;;;;;-148.88;100.00;-17125.47;5013920;28;20096;-85
2023/09/19 01:25:19;;;;;;;8.55;4.15;;;;;;;-148.88;100.00;-17125.47;5013785;28;20429;-85
2023/09/19 01:27:59;;;;;;;10.07;4.18;;;;;;;-148.88;100.00;-17125.47;5013231;28;20068;-85
2023/09/19 01:30:32;;;;;;;9.32;4.82;;;;;;;-148.88;100.00;-17125.47;5013928;28;20337;-87
2023/09/19 01:32:59;;;;;;;10.32;3.80;;;;;;;-148.88;100.00;-17125.47;5013716;28;20017;-85
2023/09/19 01:35:27;;;;;;;9.75;3.83;;;;;;;-148.88;100.00;-17125.47;5013328;28;20049;-86
2023/09/19 01:37:53;;;;;;;9.50;3.90;;;;;;;-148.88;100.00;-17125.47;5013273;28;20033;-86
2023/09/19 01:40:23;;;;;;;8.82;3.80;;;;;;;-148.88;100.00;-17125.47;5013942;28;20025;-85
2023/09/19 01:43:09;;;;;;;8.23;3.92;;;;;;;-148.88;100.00;-17125.47;5014771;28;20064;-85
2023/09/19 01:45:40;;;;;;;13.65;4.13;;;;;;;-148.88;100.00;-17125.47;5014226;28;20044;-85
2023/09/19 01:48:13;;;;;;;8.68;3.38;;;;;;;-148.88;100.00;-17125.47;5013651;28;20022;-86
2023/09/19 01:50:44;;;;;;;10.27;3.83;;;;;;;-148.88;100.00;-17125.47;5013515;28;20494;-87
2023/09/19 01:53:33;;;;;;;9.95;3.85;;;;;;;-148.88;100.00;-17125.47;5014701;28;20336;-85
2023/09/19 01:56:01;;;;;;;8.90;3.38;;;;;;;-148.88;100.00;-17125.47;5013788;28;20513;-86
2023/09/19 01:58:30;;;;;;;8.10;3.67;;;;;;;-148.88;100.00;-17125.47;5013280;28;20072;-87
2023/09/19 02:01:00;;;;;;;9.25;3.40;;;;;;;-148.88;100.00;-17125.47;5014002;28;20030;-87
2023/09/19 02:03:28;;;;;;;11.18;3.50;;;;;;;-148.88;100.00;-17125.47;5013210;28;20022;-87
2023/09/19 02:05:56;;;;;;;10.82;3.50;;;;;;;-148.88;100.00;-17125.47;5013739;28;20026;-86
2023/09/19 02:08:25;;;;;;;12.30;3.28;;;;;;;-148.88;100.00;-17125.47;5014071;28;20026;-86
2023/09/19 02:10:56;;;;;;;9.77;3.28;;;;;;;-148.88;100.00;-17125.47;5012784;28;20469;-85
2023/09/19 02:13:28;;;;;;;7.85;3.30;;;;;;;-148.88;100.00;-17125.47;5017028;28;20034;-86
2023/09/19 02:15:56;;;;;;;8.30;3.00;;;;;;;-148.88;100.00;-17125.47;5014553;28;20432;-86
2023/09/19 02:18:24;;;;;;;11.35;3.80;;;;;;;-148.88;100.00;-17125.47;5015706;28;20478;-86
2023/09/19 02:21:06;;;;;;;10.60;3.72;;;;;;;-148.88;100.00;-17125.47;5014620;28;20037;-85
2023/09/19 02:23:33;;;;;;;12.00;3.65;;;;;;;-148.88;100.00;-17125.47;5013760;28;20050;-86
2023/09/19 02:26:03;;;;;;;11.40;3.72;;;;;;;-148.88;100.00;-17125.47;5015387;28;20040;-84
2023/09/19 02:28:30;;;;;;;10.07;3.90;;;;;;;-148.88;100.00;-17125.47;5014421;28;20039;-86
2023/09/19 02:30:56;;;;;;;7.53;3.72;;;;;;;-148.88;100.00;-17125.47;5013849;28;20176;-85
2023/09/19 02:33:24;;;;;;;11.55;3.55;;;;;;;-148.88;100.00;-17125.47;5015659;28;20062;-86
2023/09/19 02:35:55;;;;;;;10.63;3.35;;;;;;;-148.88;100.00;-17125.47;5014081;28;20120;-87
2023/09/19 02:38:21;;;;;;;10.38;3.10;;;;;;;-148.88;100.00;-17125.47;5014056;28;20030;-86
2023/09/19 02:40:52;;;;;;;10.13;3.92;;;;;;;-148.88;100.00;-17125.47;5013448;28;20478;-85
2023/09/19 02:43:18;;;;;;;9.27;3.13;;;;;;;-148.88;100.00;-17125.47;5012746;28;20026;-86
2023/09/19 02:45:46;;;;;;;12.57;3.88;;;;;;;-148.88;100.00;-17125.47;5012562;28;20040;-84
2023/09/19 02:48:12;;;;;;;13.98;4.05;;;;;;;-148.88;100.00;-17125.47;5013880;28;20077;-84
2023/09/19 02:50:39;;;;;;;10.18;3.70;;;;;;;-148.88;100.00;-17125.47;5015193;28;20029;-86
2023/09/19 02:53:04;;;;;;;13.23;4.05;;;;;;;-148.88;100.00;-17125.47;5014875;28;20030;-85
2023/09/19 02:55:32;;;;;;;11.10;3.70;;;;;;;-148.88;100.00;-17125.47;5016167;28;20350;-85
2023/09/19 02:57:58;;;;;;;10.95;3.97;;;;;;;-148.88;100.00;-17125.47;5014364;28;20026;-84
2023/09/19 03:00:27;;;;;;;10.18;4.10;;;;;;;-148.88;100.00;-17125.47;5014449;28;20028;-86
2023/09/19 03:03:19;;;;;;;13.70;3.75;;;;;;;-148.88;100.00;-17125.47;5015815;28;20083;-84
2023/09/19 03:06:09;;;;;;;11.93;4.30;;;;;;;-148.88;100.00;-17125.47;5018978;28;20563;-86
2023/09/19 03:08:39;;;;;;;12.02;3.88;;;;;;;-148.88;100.00;-17125.47;5017104;28;20450;-85
2023/09/19 03:11:25;;;;;;;11.45;4.00;;;;;;;-148.88;100.00;-17125.47;5016465;28;20420;-86
2023/09/19 03:13:56;;;;;;;10.77;4.30;;;;;;;-148.88;100.00;-17125.47;5018947;28;20030;-85
2023/09/19 03:16:22;;;;;;;10.98;3.55;;;;;;;-148.88;100.00;-17125.47;5017574;28;20057;-85
2023/09/19 03:18:51;;;;;;;13.23;3.88;;;;;;;-148.88;100.00;-17125.47;5017246;28;20406;-87
2023/09/19 03:21:17;;;;;;;12.07;4.15;;;;;;;-148.88;100.00;-17125.47;5016924;28;20021;-85
2023/09/19 03:23:46;;;;;;;11.20;4.10;;;;;;;-148.88;100.00;-17125.47;5017810;28;20033;-85
2023/09/19 03:26:15;;;;;;;13.73;4.25;;;;;;;-148.88;100.00;-17125.47;5018491;28;20436;-86
2023/09/19 03:28:42;;;;;;;11.50;3.90;;;;;;;-148.88;100.00;-17125.47;5018587;28;20024;-86
2023/09/19 03:31:08;;;;;;;10.35;4.00;;;;;;;-148.88;100.00;-17125.47;5017762;28;20029;-85
2023/09/19 03:33:36;;;;;;;10.75;4.22;;;;;;;-148.88;100.00;-17125.47;5017477;28;20038;-86
2023/09/19 03:36:05;;;;;;;8.65;3.50;;;;;;;-148.88;100.00;-17125.47;5018456;28;20056;-86
2023/09/19 03:38:32;;;;;;;12.23;4.68;;;;;;;-148.88;100.00;-17125.47;5018860;28;20022;-86
2023/09/19 03:41:00;;;;;;;14.48;4.07;;;;;;;-148.88;100.00;-17125.47;5017323;28;20026;-86
2023/09/19 03:43:29;;;;;;;14.98;4.50;;;;;;;-148.88;100.00;-17125.47;5017756;28;20026;-85
2023/09/19 03:46:03;;;;;;;14.23;4.30;;;;;;;-148.88;100.00;-17125.47;5017348;28;20034;-87
2023/09/19 03:48:28;;;;;;;12.30;4.43;;;;;;;-148.88;100.00;-17125.47;5018946;28;20092;-86
2023/09/19 03:50:56;;;;;;;12.30;4.28;;;;;;;-148.88;100.00;-17125.47;5016663;28;20512;-86
2023/09/19 03:53:21;;;;;;;13.77;4.22;;;;;;;-148.88;100.00;-17125.47;5016349;28;20041;-85
2023/09/19 03:55:47;;;;;;;12.05;3.80;;;;;;;-148.88;100.00;-17125.47;5015508;28;20022;-86
2023/09/19 03:58:13;;;;;;;9.27;3.67;;;;;;;-148.88;100.00;-17125.47;5017267;28;20053;-85
2023/09/19 04:00:39;;;;;;;9.57;3.22;;;;;;;-148.88;100.00;-17125.47;5015975;28;20022;-86
2023/09/19 04:03:06;;;;;;;11.45;3.65;;;;;;;-148.88;100.00;-17125.47;5016058;28;20036;-84
2023/09/19 04:05:32;;;;;;;10.75;3.53;;;;;;;-148.88;100.00;-17125.47;5017898;28;20478;-85
2023/09/19 04:07:57;;;;;;;10.82;3.30;;;;;;;-148.88;100.00;-17125.47;5016700;28;20026;-86
2023/09/19 04:10:23;;;;;;;11.20;3.35;;;;;;;-148.88;100.00;-17125.47;5017019;28;20022;-85
2023/09/19 04:12:56;;;;;;;15.02;3.63;;;;;;;-148.88;100.00;-17125.47;5016185;28;20022;-86
2023/09/19 04:15:25;;;;;;;13.10;3.97;;;;;;;-148.88;100.00;-17125.47;5016678;28;20022;-85
2023/09/19 04:17:51;;;;;;;13.35;3.75;;;;;;;-148.88;100.00;-17125.47;5017208;28;20505;-85
2023/09/19 04:20:19;;;;;;;8.15;3.20;;;;;;;-148.88;100.00;-17125.47;5016771;28;20026;-85
2023/09/19 04:22:46;;;;;;;16.15;3.17;;;;;;;-148.88;100.00;-17125.47;5016530;28;20037;-87
2023/09/19 04:25:12;;;;;;;8.35;2.80;;;;;;;-148.88;100.00;-17125.47;5016746;28;20116;-84
2023/09/19 04:27:38;;;;;;;12.68;3.30;;;;;;;-148.88;100.00;-17125.47;5017542;28;20030;-84
2023/09/19 04:30:09;;;;;;;9.65;3.22;;;;;;;-148.88;100.00;-17125.47;5017829;28;20029;-85
2023/09/19 04:32:36;;;;;;;12.80;3.17;;;;;;;-148.88;100.00;-17125.47;5016564;28;20490;-84
2023/09/19 04:35:05;;;;;;;8.98;3.20;;;;;;;-148.88;100.00;-17125.47;5017463;28;20116;-86
2023/09/19 04:37:30;;;;;;;8.30;3.05;;;;;;;-148.88;100.00;-17125.47;5017533;28;20515;-85
2023/09/19 04:39:56;;;;;;;10.07;2.80;;;;;;;-148.88;100.00;-17125.47;5015265;28;20030;-84
2023/09/19 04:42:21;;;;;;;14.68;3.40;;;;;;;-148.88;100.00;-17125.47;5017552;28;20482;-85
2023/09/19 04:44:49;;;;;;;9.15;3.10;;;;;;;-148.88;100.00;-17125.47;5016315;28;20512;-85
2023/09/19 04:47:16;;;;;;;11.43;3.58;;;;;;;-148.88;100.00;-17125.47;5017553;28;20026;-85
2023/09/19 04:49:43;;;;;;;8.20;3.28;;;;;;;-148.88;100.00;-17125.47;5013736;28;20037;-86
2023/09/19 04:52:09;;;;;;;14.98;3.83;;;;;;;-148.88;100.00;-17125.47;5014430;28;20060;-87
2023/09/19 04:54:34;;;;;;;14.18;3.38;;;;;;;-148.88;100.00;-17125.47;5014401;28;20033;-86
2023/09/19 04:57:00;;;;;;;15.15;3.65;;;;;;;-148.88;100.00;-17125.47;5016043;28;20034;-88
2023/09/19 04:59:51;;;;;;;14.43;2.92;;;;;;;-148.88;100.00;-17125.47;5015354;28;20026;-87
2023/09/19 05:02:16;;;;;;;11.38;3.33;;;;;;;-148.88;100.00;-17125.47;5014795;28;20061;-86
2023/09/19 05:04:42;;;;;;;13.25;3.55;;;;;;;-148.88;100.00;-17125.47;5015977;28;20053;-88
2023/09/19 05:07:07;;;;;;;9.93;2.97;;;;;;;-148.88;100.00;-17125.47;5014992;28;20501;-86
2023/09/19 05:09:34;;;;;;;16.10;3.72;;;;;;;-148.88;100.00;-17125.47;5014183;28;20034;-85
2023/09/19 05:12:00;;;;;;;10.40;2.70;;;;;;;-148.88;100.00;-17125.47;5014088;28;20053;-85
2023/09/19 05:14:25;;;;;;;12.95;3.47;;;;;;;-148.88;100.00;-17125.47;5015342;28;20358;-86
2023/09/19 05:16:51;;;;;;;10.18;3.40;;;;;;;-148.88;100.00;-17125.47;5014118;28;20053;-88
2023/09/19 05:19:16;;;;;;;10.50;3.28;;;;;;;-148.88;100.00;-17125.47;5013558;28;20036;-88
2023/09/19 05:21:42;;;;;;;12.27;3.00;;;;;;;-148.88;100.00;-17125.47;5013512;28;20492;-88
2023/09/19 05:24:07;;;;;;;14.63;3.15;;;;;;;-148.88;100.00;-17125.47;5013727;28;20108;-88
2023/09/19 05:26:33;;;;;;;10.43;2.88;;;;;;;-148.88;100.00;-17125.47;5013573;28;20490;-87
2023/09/19 05:28:58;;;;;;;13.73;3.05;;;;;;;-148.88;100.00;-17125.47;5013688;28;20018;-88
2023/09/19 05:31:25;;;;;;;11.98;3.08;;;;;;;-148.88;100.00;-17125.47;5013634;28;20378;-87
2023/09/19 05:33:53;;;;;;;11.55;3.03;;;;;;;-148.88;100.00;-17125.47;5012772;28;20118;-87
2023/09/19 05:36:18;;;;;;;10.70;3.00;;;;;;;-148.88;100.00;-17125.47;5013269;28;20108;-86
2023/09/19 05:38:44;;;;;;;11.77;3.00;;;;;;;-148.88;100.00;-17125.47;5013482;28;20120;-85
2023/09/19 05:41:13;;;;;;;12.02;3.15;;;;;;;-148.88;100.00;-17125.47;5013477;28;20030;-86
2023/09/19 05:43:40;;;;;;;10.43;3.20;;;;;;;-148.88;100.00;-17125.47;5013386;28;20401;-88
2023/09/19 05:46:07;;;;;;;10.52;2.92;;;;;;;-148.88;100.00;-17125.47;5013354;28;20029;-88
2023/09/19 05:48:33;;;;;;;9.93;2.95;;;;;;;-148.88;100.00;-17125.47;5013248;28;20109;-88
2023/09/19 05:50:59;;;;;;;17.02;3.10;;;;;;;-148.88;100.00;-17125.47;5013480;28;20072;-86
2023/09/19 05:53:25;;;;;;;11.18;3.28;;;;;;;-148.88;100.00;-17125.47;5013200;28;20046;-86
2023/09/19 05:55:53;;;;;;;11.80;2.80;;;;;;;-148.88;100.00;-17125.47;5013274;28;20053;-87
2023/09/19 05:58:19;;;;;;;16.13;3.20;;;;;;;-148.88;100.00;-17125.47;5012798;28;20092;-88
2023/09/19 06:00:49;;;;;;;8.85;2.85;;;;;;;-148.88;100.00;-17125.47;5012492;28;20080;-87
2023/09/19 06:03:17;;;;;;;11.82;3.63;;;;;;;-148.88;100.00;-17125.47;4993079;28;20053;-86
2023/09/19 06:05:42;;;;;;;9.93;3.17;;;;;;;-148.88;100.00;-17125.47;4993467;28;20378;-86
2023/09/19 06:08:09;;;;;;;13.20;3.33;;;;;;;-148.88;100.00;-17125.47;4992822;28;20081;-87
2023/09/19 06:10:35;;;;;;;16.25;3.33;;;;;;;-148.88;100.00;-17125.47;4992767;28;20033;-87
2023/09/19 06:13:04;;;;;;;12.15;3.35;;;;;;;-148.88;100.00;-17125.47;4992653;28;20022;-88
2023/09/19 06:15:32;;;;;;;11.25;3.35;;;;;;;-148.88;100.00;-17125.47;4992884;28;20084;-87
2023/09/19 06:18:17;;;;;;;9.95;3.08;;;;;;;-148.88;100.00;-17125.47;4996086;28;20030;-86
2023/09/19 06:20:44;;;;;;;13.82;3.10;;;;;;;-148.88;100.00;-17125.47;4993810;28;20022;-86
2023/09/19 06:23:10;;;;;;;15.48;3.65;;;;;;;-148.88;100.00;-17125.47;4993655;28;20193;-86
2023/09/19 06:25:35;;;;;;;11.07;3.50;;;;;;;-148.88;100.00;-17125.47;4992637;28;20506;-84
2023/09/19 06:28:04;;;;;;;12.00;3.10;;;;;;;-148.88;100.00;-17125.47;4993778;28;20043;-87
2023/09/19 06:30:34;;;;;;;10.82;3.17;;;;;;;-148.88;100.00;-17125.47;4993296;28;20211;-86
2023/09/19 06:33:01;;;;;;;13.18;4.00;;;;;;;-148.88;100.00;-17125.47;4992689;28;20069;-86
2023/09/19 06:35:29;;;;;;;12.23;3.72;;;;;;;-148.88;100.00;-17125.47;4992466;28;20494;-86
2023/09/19 06:37:57;;;;;;;12.35;3.25;;;;;;;-148.88;100.00;-17125.47;4992588;28;20122;-86
2023/09/19 06:40:23;;;;;;;12.30;2.70;;;;;;;-148.88;100.00;-17125.47;4992735;28;20026;-86
2023/09/19 06:42:52;;;;;;;12.93;3.20;;;;;;;-148.88;100.00;-17125.47;4992848;28;20077;-85
2023/09/19 06:45:18;;;;;;;13.07;3.40;;;;;;;-148.88;100.00;-17125.47;4995514;28;20030;-87
2023/09/19 06:47:55;;;;;;;9.30;2.72;;;;;;;-148.88;100.00;-17125.47;4996493;28;20022;-85
2023/09/19 06:50:22;;;;;;;11.60;3.17;;;;;;;-148.88;100.00;-17125.47;4996680;28;20065;-86
2023/09/19 06:52:50;;;;;;;9.98;3.15;;;;;;;-148.88;100.00;-17125.47;4997625;28;20028;-88
2023/09/19 06:55:20;;;;;;;11.35;2.95;;;;;;;-148.88;100.00;-17125.47;4996367;28;20045;-87
2023/09/19 06:57:46;;;;;;;10.15;3.28;;;;;;;-148.88;100.00;-17125.47;4996849;28;20502;-85
2023/09/19 07:00:18;;;;;;;10.90;3.10;;;;;;;-148.88;100.00;-17125.47;4997344;28;20026;-87
2023/09/19 07:02:44;;;;;;;9.00;2.90;;;;;;;-148.88;100.00;-17125.47;4997485;28;20489;-88
2023/09/19 07:05:10;;;;;;;11.60;3.15;;;;;;;-148.88;100.00;-17125.47;4996810;28;20113;-87
2023/09/19 07:07:35;;;;;;;9.90;2.63;;;;;;;-148.88;100.00;-17125.47;4996238;28;20030;-86
2023/09/19 07:10:02;;;;;;;10.48;2.60;;;;;;;-148.88;100.00;-17125.47;4996154;28;20092;-88
2023/09/19 07:12:27;;;;;;;11.20;2.40;;;;;;;-148.88;100.00;-17125.47;4997815;28;20030;-86
2023/09/19 07:14:53;;;;;;;9.05;3.03;;;;;;;-148.88;100.00;-17125.47;4996090;28;20023;-85
2023/09/19 07:17:18;;;;;;;10.85;3.20;;;;;;;-148.88;100.00;-17125.47;4997081;28;20084;-88
2023/09/19 07:20:07;;;;;;;7.85;2.70;;;;;;;-148.88;100.00;-17125.47;4995577;28;20057;-88
2023/09/19 07:22:33;;;;;;;9.60;2.75;;;;;;;-148.88;100.00;-17125.47;4981169;28;20053;-87
2023/09/19 07:24:58;;;;;;;8.80;2.85;;;;;;;-148.88;100.00;-17125.47;4996323;28;20026;-87
2023/09/19 07:27:24;;;;;;;11.43;3.22;;;;;;;-148.88;100.00;-17125.47;4995886;28;20023;-86
2023/09/19 07:29:50;;;;;;;11.98;2.75;;;;;;;-148.88;100.00;-17125.47;4995704;28;20049;-87
2023/09/19 07:32:17;;;;;;;8.60;2.55;;;;;;;-148.88;100.00;-17125.47;4996432;28;20470;-85
2023/09/19 07:34:45;;;;;;;12.30;3.03;;;;;;;-148.88;100.00;-17125.47;4995761;28;20397;-88
2023/09/19 07:37:13;;;;;;;11.02;2.53;;;;;;;-148.88;100.00;-17125.47;4996193;28;20022;-86
2023/09/19 07:39:41;;;;;;;10.35;3.15;;;;;;;-148.88;100.00;-17125.47;4996100;28;20117;-87
2023/09/19 07:42:07;;;;;;;10.85;2.97;;;;;;;-148.88;100.00;-17125.47;4997036;28;20050;-85
2023/09/19 07:44:32;;;;;;;11.43;2.83;;;;;;;-148.88;100.00;-17125.47;4999491;28;20465;-86
2023/09/19 07:46:57;;;;;;;10.20;3.05;;;;;;;-148.88;100.00;-17125.47;4996600;28;20039;-85
2023/09/19 07:49:23;;;;;;;11.98;2.80;;;;;;;-148.88;100.00;-17125.47;4995933;28;20045;-84
2023/09/19 07:51:48;;;;;;;9.68;2.70;;;;;;;-148.88;100.00;-17125.47;4996188;28;20029;-86
2023/09/19 07:54:17;;;;;;;12.23;3.10;;;;;;;-148.88;100.00;-17125.47;4995665;28;20022;-84
2023/09/19 07:56:42;;;;;;;13.38;2.92;;;;;;;-148.88;100.00;-17125.47;4994949;28;20018;-86
2023/09/19 07:59:08;;;;;;;9.95;3.33;;;;;;;-148.88;100.00;-17125.47;4996925;28;20073;-85
2023/09/19 08:01:35;;;;;;;9.43;2.33;;;;;;;-148.88;100.00;-17125.47;4996391;28;20493;-87
2023/09/19 08:04:00;;;;;;;11.80;2.67;;;;;;;-148.88;100.00;-17125.47;4996127;28;20038;-85
2023/09/19 08:06:29;;;;;;;8.27;2.67;;;;;;;-148.88;100.00;-17125.47;4996860;28;20518;-85
2023/09/19 08:09:00;;;;;;;11.27;2.95;;;;;;;-148.88;100.00;-17125.47;4996145;28;20022;-86
2023/09/19 08:11:26;;;;;;;9.20;2.65;;;;;;;-148.88;100.00;-17125.47;4999434;28;20112;-86
2023/09/19 08:13:52;;;;;;;7.13;2.45;;;;;;;-148.88;100.00;-17125.47;4995867;28;20470;-86
2023/09/19 08:16:19;;;;;;;11.05;2.83;;;;;;;-148.88;100.00;-17125.47;4996030;28;20029;-85
2023/09/19 08:18:55;;;;;;;13.80;2.58;;;;;;;-148.88;100.00;-17125.47;4995534;28;20033;-85
2023/09/19 08:21:24;;;;;;;12.20;2.63;;;;;;;-148.88;100.00;-17125.47;4994610;28;20077;-84
2023/09/19 08:23:50;;;;;;;12.52;2.83;;;;;;;-148.88;100.00;-17125.47;4995410;28;20113;-86
2023/09/19 08:26:15;;;;;;;10.35;2.58;;;;;;;-148.88;100.00;-17125.47;4995272;28;20443;-88
2023/09/19 08:28:40;;;;;;;9.13;2.50;;;;;;;-148.88;100.00;-17125.47;4995206;28;20022;-86
2023/09/19 08:31:08;;;;;;;9.98;3.28;;;;;;;-148.88;100.00;-17125.47;4996305;28;20026;-86
2023/09/19 08:33:37;;;;;;;12.35;3.10;;;;;;;-148.88;100.00;-17125.47;4995592;28;20066;-85
2023/09/19 08:36:07;;;;;;;6.95;2.42;;;;;;;-148.88;100.00;-17125.47;4996669;28;20398;-85
2023/09/19 08:38:35;;;;;;;8.38;2.50;;;;;;;-148.88;100.00;-17125.47;4995479;28;20517;-86
2023/09/19 08:41:04;;;;;;;8.32;2.70;;;;;;;-148.88;100.00;-17125.47;4995828;28;20400;-84
2023/09/19 08:43:30;;;;;;;10.43;2.42;;;;;;;-148.88;100.00;-17125.47;4995622;28;20166;-85
2023/09/19 08:46:05;;;;;;;11.55;2.72;;;;;;;-148.88;100.00;-17125.47;4995324;28;20075;-86
2023/09/19 08:48:31;;;;;;;9.50;3.00;;;;;;;-148.88;100.00;-17125.47;4997270;28;20105;-85
2023/09/19 08:51:03;;;;;;;8.63;2.47;;;;;;;-148.88;100.00;-17125.47;4996781;28;20023;-86
2023/09/19 08:53:50;;;;;;;11.15;3.38;;;;;;;-148.88;100.00;-17125.47;4995644;28;20113;-85
2023/09/19 08:56:18;;;;;;;8.88;3.05;;;;;;;-148.88;100.00;-17125.47;4994692;28;20030;-86
2023/09/19 08:58:56;;;;;;;9.27;2.65;;;;;;;-148.88;100.00;-17125.47;4994231;28;20121;-85
2023/09/19 09:01:24;;;;;;;8.30;2.65;;;;;;;-148.88;100.00;-17125.47;4993983;28;20030;-86
2023/09/19 09:03:52;;;;;;;13.32;3.30;;;;;;;-148.88;99.66;-17125.47;4993642;28;20494;-85
2023/09/19 09:06:20;;;;;;;9.38;2.85;;;;;;;-148.88;100.00;-17125.47;4995654;28;20034;-87
2023/09/19 09:08:46;;;;;;;10.45;2.72;;;;;;;-148.88;100.00;-17125.47;4992809;28;20026;-87
2023/09/19 09:11:21;;;;;;;9.27;3.30;;;;;;;-148.88;99.81;-17125.47;4994094;28;20019;-87
2023/09/19 09:13:48;;;;;;;9.25;3.08;;;;;;;-148.88;99.73;-17125.47;4994317;28;20034;-87
2023/09/19 09:16:17;;;;;;;12.27;3.50;;;;;;;-148.88;99.96;-17125.47;4993847;28;20027;-88
2023/09/19 09:18:44;;;;;;;10.95;3.28;;;;;;;-148.88;99.73;-17125.47;4993466;28;20459;-88
2023/09/19 09:21:10;;;;;;;11.10;3.20;;;;;;;-148.88;99.69;-17125.47;4993566;28;20075;-85
2023/09/19 09:23:35;;;;;;;12.30;4.00;;;;;;;-148.88;96.38;-17125.47;4994681;28;20162;-85
2023/09/19 09:26:05;;;;;;;10.60;3.67;;;;;;;-148.88;96.13;-17125.47;4995374;28;20056;-88
2023/09/19 09:28:33;;;;;;;10.55;3.70;;;;;;;-148.88;97.60;-17125.47;4994059;28;20077;-83
2023/09/19 09:31:00;;;;;;;13.15;3.83;;;;;;;-148.88;96.74;-17125.47;4994386;28;20049;-88
2023/09/19 09:33:26;;;;;;;10.55;3.60;;;;;;;-148.88;97.26;-17125.47;4995118;28;20073;-87
2023/09/19 09:36:02;;;;;;;10.88;3.47;;;;;;;-148.88;96.50;-17125.47;4993468;28;20060;-88
2023/09/19 09:38:55;;;;;;;9.77;4.20;;;;;;;-148.88;94.53;-17125.47;4993588;28;20023;-87
2023/09/19 09:41:37;;;;;;;13.55;4.07;;;;;;;-148.88;96.45;-17125.47;4993229;28;20033;-85
2023/09/19 09:44:15;;;;;;;11.68;4.00;;;;;;;-148.88;96.98;-17125.47;4993245;28;20022;-85
2023/09/19 09:51:57;;;;;;;;;;;;;;;-148.88;95.10;-17125.47;4995776;28;20034;-86
2023/09/19 09:54:23;;;;;;;;;;;;;;;-148.88;92.75;-17125.47;4993846;28;19953;-85
2023/09/19 09:57:17;;;;;;;11.02;3.65;;;;;;;-148.88;92.17;-17125.47;4993976;28;19910;-85
2023/09/19 09:59:50;;;;;;;12.98;3.85;;;;;;;-148.88;92.76;-17125.47;4993876;28;20029;-84
2023/09/19 10:02:23;;;;;;;10.57;4.00;;;;;;;-148.88;91.25;-17125.47;4993129;28;20070;-87
2023/09/19 10:05:09;;;;;;;10.60;3.63;;;;;;;-148.88;91.44;-17125.47;4994272;28;20030;-87
2023/09/19 10:07:38;;;;;;;8.52;3.00;;;;;;;-148.88;89.56;-17125.47;4994208;28;20026;-85
2023/09/19 10:10:12;;;;;;;14.05;3.75;;;;;;;-148.88;90.56;-17125.47;4993937;28;20022;-87
2023/09/19 10:12:45;;;;;;;8.57;3.50;;;;;;;-148.88;87.31;-17125.47;4993428;28;20061;-87
2023/09/19 10:15:15;;;;;;;11.40;3.55;;;;;;;-148.88;86.80;-17125.47;4993434;28;20084;-84
2023/09/19 10:17:46;;;;;;;10.82;3.60;;;;;;;-148.88;86.23;-17125.47;4993566;28;20066;-85
2023/09/19 10:20:33;;;;;;;14.10;3.20;;;;;;;-148.88;84.77;-17125.47;4993370;28;20037;-84
2023/09/19 10:23:09;;;;;;;11.20;3.83;;;;;;;-148.88;86.82;-17125.47;4994600;28;20022;-84
2023/09/19 10:25:40;;;;;;;8.35;3.50;;;;;;;-148.88;87.90;-17125.47;4993529;28;20038;-86
2023/09/19 10:28:10;;;;;;;8.18;3.17;;;;;;;-148.88;85.64;-17125.47;4993848;28;20022;-85
2023/09/19 10:30:47;;;;;;;7.97;2.97;;;;;;;-148.88;82.98;-17125.47;4993208;28;20033;-86
2023/09/19 10:33:27;;;;;;;11.35;3.67;;;;;;;-148.88;83.88;-17125.47;4994497;28;20077;-85
2023/09/19 10:36:00;;;;;;;12.38;3.53;;;;;;;-148.88;85.75;-17125.47;4993095;28;20025;-86
2023/09/19 10:38:28;;;;;;;8.85;3.03;;;;;;;-148.88;87.43;-17125.47;4993957;28;20032;-86
2023/09/19 10:41:05;;;;;;;10.02;3.15;;;;;;;-148.88;83.47;-17125.47;4993369;28;20062;-86
2023/09/19 10:43:32;;;;;;;10.80;3.33;;;;;;;-148.88;85.91;-17125.47;4994577;28;20504;-85
2023/09/19 10:46:13;;;;;;;7.68;2.83;;;;;;;-148.88;88.06;-17125.47;5055358;23;20049;-87
2023/09/19 10:48:43;;;;;;;8.15;3.45;;;;;;;-148.88;86.57;-17125.47;5032882;28;20117;-86
2023/09/19 10:51:14;;;;;;;11.07;3.45;;;;;;;-148.88;86.42;-17125.47;5035496;28;20033;-86
2023/09/19 10:54:00;;;;;;;11.00;3.22;;;;;;;-148.88;84.83;-17125.47;5033072;28;20033;-87
2023/09/19 10:56:48;;;;;;;9.77;3.30;;;;;;;-148.88;85.78;-17125.47;5032787;28;20036;-85
2023/09/19 10:59:19;;;;;;;9.05;3.03;;;;;;;-148.88;84.61;-17125.47;5032566;28;20024;-86
2023/09/19 11:01:58;;;;;;;9.13;3.03;;;;;;;-148.88;86.05;-17125.47;5033796;28;20021;-85
2023/09/19 11:04:30;;;;;;;5.95;2.47;;;;;;;-148.88;84.35;-17125.47;5032795;28;20079;-84
2023/09/19 11:07:25;;;;;;;12.45;3.00;;;;;;;-148.88;84.83;-17125.47;5033351;28;20029;-89
2023/09/19 11:09:58;;;;;;;10.55;2.83;;;;;;;-148.88;84.55;-17125.47;5031790;28;20021;-85
2023/09/19 11:12:40;;;;;;;9.32;3.42;;;;;;;-148.88;85.40;-17125.47;5033572;28;20026;-87
2023/09/19 11:15:13;;;;;;;10.25;3.10;;;;;;;-148.88;82.93;-17125.47;5032525;28;20034;-86
2023/09/19 11:17:45;;;;;;;8.50;2.65;;;;;;;-148.88;84.44;-17125.47;5033030;28;20399;-85